TLSO2: Arkansas River, Tulsa, OK

                                SHEF ID:       TLSO2     Arkansas River at Tulsa, OK
STATION TYPE: Stream Gauge
Regulating: Stage = 15.00, Flow = 96489

PRECIP STAGE STAGE(2) RIV-FLOW WTR-TEMP DIS-OXY BAT-LOAD
in ft ft cfs F mg/l volt
Ccp-Rev Ccp-Rev Ccp-Rev Ccp-Rev Ccp-Rev Ccp-Rev Ccp-Rev
(America/Chicago)
03/19 00:00 0.00 4.69 ---- 5634 56.55 11.12 ----
03/19 01:00 0.00 4.68 ---- 5581 56.43 10.99 ----
03/19 02:00 0.00 4.69 ---- 5634 55.92 10.72 ----
03/19 03:00 0.00 4.68 ---- 5581 54.86 10.03 ----
03/19 04:00 0.00 4.68 ---- 5581 54.81 9.85 ----
03/19 05:00 0.00 4.68 ---- 5581 54.19 9.56 ----
03/19 06:00 0.00 4.68 ---- 5581 54.01 9.44 ----
03/19 07:00 0.00 4.69 ---- 5634 53.60 9.35 ----
03/19 08:00 0.00 4.69 ---- 5634 53.46 9.27 ----
03/19 09:00 0.00 4.67 ---- 5529 53.17 9.36 ----
03/19 10:00 0.00 4.68 ---- 5581 53.24 9.65 ----
03/19 11:00 0.00 4.68 ---- 5581 53.69 10.18 ----
03/19 12:00 0.00 4.69 ---- 5634 54.50 10.78 ----
03/19 13:00 0.00 4.70 ---- 5687 55.49 11.37 ----
03/19 14:00 0.00 4.63 ---- 5321 56.73 11.99 ----
03/19 15:00 0.00 4.69 ---- 5634 57.79 12.43 ----
03/19 16:00 0.00 4.67 ---- 5529 58.78 12.80 ----
03/19 17:00 0.00 4.68 ---- 5581 59.68 13.37 ----
03/19 18:00 0.00 4.68 ---- 5581 60.31 13.56 ----
03/19 19:00 0.00 4.66 ---- 5477 60.55 13.61 ----
03/19 20:00 0.00 4.70 ---- 5687 60.58 13.31 ----
03/19 21:00 0.00 4.73 ---- 5849 60.49 13.19 ----
03/19 22:00 0.00 4.66 ---- 5477 59.94 12.55 ----
03/19 23:00 0.00 4.68 ---- 5581 59.36 12.18 ----
Data processed at Fri 20Mar2026 04:48 GMT

NOTICE: If you are parsing this page

Please convert to using our Data API. Starting early 2026 we will be migrating to: https://water.usace.army.mil with modern pages rendered in JavaScript. When this migration completes you will no longer be able to scrape this page! CWMSDataAPI (CDA)

Timeseries IDs (TSIDs)

TSIDs used from left to right in the data table
TULA.Precip-Inc.Total.1Hour.1Hour.Ccp-Rev
TULA.Stage.Inst.1Hour.0.Ccp-Rev
TULA.Stage-Alt.Inst.1Hour.0.Ccp-Rev
TULA.Flow.Inst.1Hour.0.Ccp-Rev
TULA.Temp-Water.Inst.1Hour.0.Ccp-Rev
TULA.Conc-DO.Inst.1Hour.0.Ccp-Rev
TULA.Volt-Battery Load.Inst.1Hour.0.Ccp-Rev

                            

All information presented herein is the property of the government of the United States of America and may be revised or deleted at any time without prior notice. Dissemination of this information without the expressed written consent of the Public Affairs Office, Tulsa District U.S. Army Corps of Engineers is strictly prohibited. These data are gathered electronically and, as presented, have NOT undergone any form of quality control. These data are NOT guaranteed to be valid or correct.